createdAt,value
2022-10-18T00:00:11.198Z,101658.62
2022-10-18T00:03:14.085Z,101669.12
2022-10-18T00:06:16.810Z,101654.97
2022-10-18T00:09:19.744Z,101653.16
2022-10-18T00:12:22.378Z,101649.38
2022-10-18T00:15:25.290Z,101653.22
2022-10-18T00:18:28.674Z,101654.13
2022-10-18T00:21:31.700Z,101651.09
2022-10-18T00:24:34.316Z,101651.81
2022-10-18T00:27:37.223Z,101649.38
2022-10-18T00:30:39.899Z,101646.94
2022-10-18T00:33:44.672Z,101652.16
2022-10-18T00:36:48.366Z,101651.69
2022-10-18T00:42:58.795Z,101643.28
2022-10-18T00:46:04.067Z,101642.34
2022-10-18T00:49:27.679Z,101633.78
2022-10-18T00:52:57.039Z,101628.75
2022-10-18T00:55:59.723Z,101620.75
2022-10-18T00:59:03.432Z,101629.69
2022-10-18T01:02:07.221Z,101620.78
2022-10-18T01:05:12.961Z,101621.47
2022-10-18T01:08:50.380Z,101616.41
2022-10-18T01:12:33.182Z,101618.88
2022-10-18T01:15:47.949Z,101618.75
2022-10-18T01:18:57.221Z,101606.19
2022-10-18T01:22:07.762Z,101606.28
2022-10-18T01:25:26.377Z,101599.66
2022-10-18T01:28:53.958Z,101593.91
2022-10-18T01:32:07.529Z,101592.13
2022-10-18T01:35:18.271Z,101588.69
2022-10-18T01:38:24.038Z,101591.34
2022-10-18T01:41:28.612Z,101578.00
2022-10-18T01:44:33.683Z,101575.31
2022-10-18T01:47:38.602Z,101586.16
2022-10-18T01:50:42.201Z,101580.81
2022-10-18T01:53:44.863Z,101576.16
2022-10-18T01:56:50.487Z,101584.12
2022-10-18T02:00:12.844Z,101577.31
2022-10-18T02:03:24.486Z,101577.78
2022-10-18T02:06:32.635Z,101568.87
2022-10-18T02:09:43.150Z,101578.22
2022-10-18T02:12:48.758Z,101567.38
2022-10-18T02:15:59.654Z,101569.06
2022-10-18T02:19:28.570Z,101570.88
2022-10-18T02:22:33.966Z,101575.22
2022-10-18T02:25:37.443Z,101580.47
2022-10-18T02:28:43.692Z,101572.22
2022-10-18T02:31:49.385Z,101583.81
2022-10-18T02:35:18.664Z,101579.28
2022-10-18T02:38:26.920Z,101582.25
2022-10-18T02:41:31.392Z,101586.31
2022-10-18T02:44:38.336Z,101584.03
2022-10-18T02:47:41.415Z,101580.59
2022-10-18T02:50:44.041Z,101584.50
2022-10-18T02:53:46.932Z,101596.81
2022-10-18T02:56:49.845Z,101601.25
2022-10-18T02:59:52.760Z,101602.22
2022-10-18T03:02:55.450Z,101602.91
2022-10-18T03:05:58.399Z,101605.50
2022-10-18T03:09:06.093Z,101594.88
2022-10-18T03:12:09.184Z,101594.75
2022-10-18T03:15:11.801Z,101598.75
2022-10-18T03:18:15.615Z,101599.41
2022-10-18T03:21:18.616Z,101599.13
2022-10-18T03:24:21.455Z,101596.75
2022-10-18T03:27:24.804Z,101601.44
2022-10-18T03:30:27.812Z,101595.22
2022-10-18T03:33:31.898Z,101604.06
2022-10-18T03:36:34.956Z,101604.75
2022-10-18T03:39:37.515Z,101613.41
2022-10-18T03:42:40.488Z,101608.34
2022-10-18T03:45:43.063Z,101607.19
2022-10-18T03:48:45.980Z,101610.28
2022-10-18T03:51:48.535Z,101609.44
2022-10-18T03:54:53.962Z,101609.81
2022-10-18T03:57:56.607Z,101602.63
2022-10-18T04:01:00.830Z,101610.00
2022-10-18T04:04:05.086Z,101606.25
2022-10-18T04:07:07.749Z,101599.31
2022-10-18T04:10:10.795Z,101601.09
2022-10-18T04:13:13.798Z,101600.25
2022-10-18T04:16:16.675Z,101601.41
2022-10-18T04:19:19.340Z,101587.91
2022-10-18T04:22:22.251Z,101590.06
2022-10-18T04:25:25.330Z,101588.47
2022-10-18T04:28:28.250Z,101585.56
2022-10-18T04:31:31.813Z,101584.25
2022-10-18T04:34:34.756Z,101581.31
2022-10-18T04:37:37.437Z,101575.31
2022-10-18T04:40:40.564Z,101574.81
2022-10-18T04:43:43.248Z,101571.75
2022-10-18T04:46:46.385Z,101572.37
2022-10-18T04:49:48.987Z,101577.91
2022-10-18T04:52:53.727Z,101569.78
2022-10-18T04:55:56.747Z,101568.94
2022-10-18T04:59:00.046Z,101574.00
2022-10-18T05:05:14.016Z,101576.28
2022-10-18T05:08:16.990Z,101573.34
2022-10-18T05:11:19.921Z,101565.06
2022-10-18T05:14:22.651Z,101559.56
2022-10-18T05:17:25.540Z,101560.34
2022-10-18T05:20:28.188Z,101558.41
2022-10-18T05:23:31.055Z,101557.59
2022-10-18T05:26:33.662Z,101554.19
2022-10-18T05:29:36.793Z,101558.25
2022-10-18T05:32:39.319Z,101552.88
2022-10-18T05:35:42.905Z,101543.75
2022-10-18T05:38:45.717Z,101541.47
2022-10-18T05:41:48.659Z,101555.13
2022-10-18T05:44:51.273Z,101553.00
2022-10-18T05:47:54.744Z,101552.03
2022-10-18T05:51:01.154Z,101555.09
2022-10-18T05:54:04.252Z,101562.59
2022-10-18T05:57:06.794Z,101566.31
2022-10-18T06:00:10.607Z,101566.84
2022-10-18T06:03:14.163Z,101578.03
2022-10-18T06:06:17.331Z,101576.88
2022-10-18T06:09:23.920Z,101581.22
2022-10-18T06:12:27.032Z,101587.09
2022-10-18T06:15:29.914Z,101578.78
2022-10-18T06:18:32.808Z,101573.94
2022-10-18T06:21:35.411Z,101585.16
2022-10-18T06:24:38.704Z,101580.88
2022-10-18T06:27:42.357Z,101579.97
2022-10-18T06:30:45.537Z,101591.75
2022-10-18T06:33:50.790Z,101589.78
2022-10-18T06:36:56.416Z,101590.06
2022-10-18T06:40:02.766Z,101582.19
2022-10-18T06:43:20.763Z,101573.94
2022-10-18T06:46:24.504Z,101573.84
2022-10-18T06:49:27.478Z,101575.91
2022-10-18T06:52:30.285Z,101575.63
2022-10-18T06:55:33.468Z,101586.03
2022-10-18T06:58:36.746Z,101578.72
2022-10-18T07:01:39.669Z,101585.13
2022-10-18T07:04:42.439Z,101573.94
2022-10-18T07:07:45.392Z,101580.09
2022-10-18T07:10:53.412Z,101582.66
2022-10-18T07:14:03.224Z,101573.09
2022-10-18T07:17:06.880Z,101581.28
2022-10-18T07:20:10.313Z,101567.69
2022-10-18T07:23:12.879Z,101577.13
2022-10-18T07:26:20.348Z,101571.97
2022-10-18T07:29:23.036Z,101567.72
2022-10-18T07:32:25.964Z,101572.37
2022-10-18T07:35:28.602Z,101571.34
2022-10-18T07:38:32.113Z,101565.97
2022-10-18T07:41:35.572Z,101558.84
2022-10-18T07:44:39.926Z,101558.91
2022-10-18T07:47:42.534Z,101547.53
2022-10-18T07:50:45.612Z,101546.38
2022-10-18T07:53:48.665Z,101544.25
2022-10-18T07:56:51.600Z,101543.28
2022-10-18T07:59:57.063Z,101540.88
2022-10-18T08:03:00.195Z,101533.16
2022-10-18T08:06:06.371Z,101524.22
2022-10-18T08:09:08.968Z,101525.75
2022-10-18T08:12:11.903Z,101520.78
2022-10-18T08:15:14.930Z,101505.66
2022-10-18T08:18:17.848Z,101511.03
2022-10-18T08:21:21.735Z,101506.41
2022-10-18T08:24:24.688Z,101496.59
2022-10-18T08:27:30.513Z,101499.84
2022-10-18T08:30:34.896Z,101493.63
2022-10-18T08:33:38.749Z,101496.88
2022-10-18T08:36:41.650Z,101489.56
2022-10-18T08:39:44.575Z,101478.09
2022-10-18T08:43:21.414Z,101480.75
2022-10-18T08:46:25.425Z,101473.91
2022-10-18T08:49:46.848Z,101477.03
2022-10-18T08:53:17.850Z,101462.97
2022-10-18T08:56:24.285Z,101461.22
2022-10-18T08:59:37.552Z,101448.84
2022-10-18T09:03:25.754Z,101444.97
2022-10-18T09:06:47.125Z,101441.41
2022-10-18T09:10:19.575Z,101435.19
2022-10-18T09:13:57.189Z,101445.03
2022-10-18T09:17:13.670Z,101446.53
2022-10-18T09:20:23.440Z,101444.66
2022-10-18T09:23:48.916Z,101453.25
2022-10-18T09:26:58.972Z,101437.28
2022-10-18T09:30:14.514Z,101444.06
2022-10-18T09:33:40.802Z,101430.34
2022-10-18T09:36:45.821Z,101428.78
2022-10-18T09:39:50.922Z,101433.22
2022-10-18T09:43:18.101Z,101416.84
2022-10-18T09:46:24.136Z,101417.75
2022-10-18T09:49:36.953Z,101415.34
2022-10-18T09:52:52.079Z,101425.78
2022-10-18T09:56:06.816Z,101417.28
2022-10-18T09:59:33.539Z,101417.09
2022-10-18T10:02:36.767Z,101424.00
2022-10-18T10:05:39.687Z,101409.66
2022-10-18T10:08:53.645Z,101411.41
2022-10-18T10:11:57.803Z,101408.59
2022-10-18T10:15:09.727Z,101418.69
2022-10-18T10:18:21.953Z,101411.09
2022-10-18T10:21:24.961Z,101399.97
2022-10-18T10:25:03.049Z,101398.91
2022-10-18T10:28:14.283Z,101390.16
2022-10-18T10:31:28.868Z,101401.47
2022-10-18T10:34:31.961Z,101389.94
2022-10-18T10:37:37.933Z,101391.62
2022-10-18T10:40:50.587Z,101375.13
2022-10-18T10:43:55.276Z,101370.25
2022-10-18T10:46:58.487Z,101364.44
2022-10-18T10:50:12.294Z,101357.28
2022-10-18T10:53:30.880Z,101352.72
2022-10-18T10:56:37.935Z,101359.97
2022-10-18T10:59:45.482Z,101346.28
2022-10-18T11:02:59.300Z,101339.84
2022-10-18T11:06:31.956Z,101338.13
2022-10-18T11:09:56.515Z,101325.72
2022-10-18T11:13:25.064Z,101315.97
2022-10-18T11:16:40.054Z,101315.69
2022-10-18T11:20:05.899Z,101302.81
2022-10-18T11:23:15.545Z,101305.41
2022-10-18T11:26:30.363Z,101300.81
2022-10-18T11:29:42.868Z,101298.06
2022-10-18T11:33:17.171Z,101279.72
2022-10-18T11:36:49.471Z,101279.94
2022-10-18T11:40:35.724Z,101286.12
2022-10-18T11:44:03.523Z,101273.78
2022-10-18T11:47:16.189Z,101261.38
2022-10-18T11:50:21.724Z,101258.22
2022-10-18T11:53:38.288Z,101257.22
2022-10-18T11:57:02.669Z,101260.72
2022-10-18T12:00:22.015Z,101258.78
2022-10-18T12:03:29.578Z,101251.81
2022-10-18T12:06:37.681Z,101249.66
2022-10-18T12:09:43.901Z,101242.34
2022-10-18T12:13:01.495Z,101230.25
2022-10-18T12:16:07.087Z,101230.78
2022-10-18T12:19:26.304Z,101225.25
2022-10-18T12:22:39.959Z,101222.00
2022-10-18T12:25:49.406Z,101228.66
2022-10-18T12:29:27.532Z,101230.78
2022-10-18T12:32:35.131Z,101220.91
2022-10-18T12:35:50.391Z,101217.13
2022-10-18T12:39:02.883Z,101208.00
2022-10-18T12:42:06.050Z,101203.91
2022-10-18T12:45:27.076Z,101207.41
2022-10-18T12:48:34.159Z,101204.56
2022-10-18T12:51:50.616Z,101197.06
2022-10-18T12:55:18.377Z,101195.63
2022-10-18T12:58:20.907Z,101189.19
2022-10-18T13:01:25.445Z,101192.53
2022-10-18T13:04:28.285Z,101198.25
2022-10-18T13:07:33.667Z,101194.69
2022-10-18T13:10:38.361Z,101192.50
2022-10-18T13:14:08.466Z,101180.78
2022-10-18T13:17:20.954Z,101183.94
2022-10-18T13:20:40.893Z,101177.88
2022-10-18T13:24:09.833Z,101180.25
2022-10-18T13:27:35.948Z,101178.22
2022-10-18T13:30:48.341Z,101175.19
2022-10-18T13:33:51.817Z,101179.06
2022-10-18T13:37:24.005Z,101165.22
2022-10-18T13:40:27.136Z,101162.75
2022-10-18T13:43:54.944Z,101153.50
2022-10-18T13:46:57.915Z,101150.00
2022-10-18T13:50:31.807Z,101148.94
2022-10-18T13:53:52.017Z,101146.41
2022-10-18T13:57:06.454Z,101144.94
2022-10-18T14:00:15.122Z,101147.06
2022-10-18T14:03:57.662Z,101141.50
2022-10-18T14:07:02.712Z,101141.16
2022-10-18T14:10:20.440Z,101142.06
2022-10-18T14:13:33.991Z,101132.84
2022-10-18T14:16:51.832Z,101123.25
2022-10-18T14:20:03.491Z,101129.00
2022-10-18T14:23:16.093Z,101126.66
2022-10-18T14:26:20.851Z,101123.88
2022-10-18T14:29:23.856Z,101124.28
2022-10-18T14:32:30.019Z,101105.00
2022-10-18T14:35:35.867Z,101108.69
2022-10-18T14:39:01.686Z,101101.53
2022-10-18T14:42:04.731Z,101110.84
2022-10-18T14:45:18.941Z,101106.88
2022-10-18T14:48:23.881Z,101110.16
2022-10-18T14:51:30.308Z,101104.56
2022-10-18T14:54:36.711Z,101107.38
2022-10-18T14:57:39.426Z,101104.25
2022-10-18T15:00:45.127Z,101101.50
2022-10-18T15:03:50.959Z,101104.78
2022-10-18T15:06:54.815Z,101097.25
2022-10-18T15:09:59.619Z,101096.53
2022-10-18T15:13:10.085Z,101090.56
2022-10-18T15:16:22.853Z,101085.78
2022-10-18T15:19:32.503Z,101082.59
2022-10-18T15:22:35.142Z,101081.91
2022-10-18T15:25:38.113Z,101082.34
2022-10-18T15:28:51.267Z,101081.97
2022-10-18T15:31:54.955Z,101071.97
2022-10-18T15:35:20.994Z,101068.47
2022-10-18T15:38:28.732Z,101074.97
2022-10-18T15:42:01.878Z,101077.81
2022-10-18T15:45:25.908Z,101077.47
2022-10-18T15:48:47.517Z,101071.88
2022-10-18T15:52:11.634Z,101073.47
2022-10-18T15:55:29.612Z,101069.88
2022-10-18T15:58:39.333Z,101076.69
2022-10-18T16:01:45.092Z,101083.91
2022-10-18T16:04:48.197Z,101073.84
2022-10-18T16:07:54.226Z,101076.22
2022-10-18T16:10:59.037Z,101073.34
2022-10-18T16:14:01.724Z,101081.66
2022-10-18T16:17:07.027Z,101075.66
2022-10-18T16:20:24.664Z,101079.59
2022-10-18T16:23:31.483Z,101069.56
2022-10-18T16:26:35.037Z,101075.84
2022-10-18T16:29:37.978Z,101068.56
2022-10-18T16:32:41.009Z,101071.00
2022-10-18T16:35:44.031Z,101078.63
2022-10-18T16:38:47.672Z,101077.69
2022-10-18T16:41:51.504Z,101081.28
2022-10-18T16:44:55.197Z,101077.25
2022-10-18T16:47:58.114Z,101076.75
2022-10-18T16:51:01.806Z,101084.97
2022-10-18T16:54:05.648Z,101085.13
2022-10-18T16:57:12.701Z,101095.50
2022-10-18T17:00:21.127Z,101099.50
2022-10-18T17:03:24.731Z,101095.06
2022-10-18T17:06:31.253Z,101107.78
2022-10-18T17:09:36.015Z,101103.16
2022-10-18T17:12:39.318Z,101094.78
2022-10-18T17:15:42.766Z,101093.94
2022-10-18T17:18:46.120Z,101094.59
2022-10-18T17:21:48.839Z,101103.16
2022-10-18T17:24:53.146Z,101100.38
2022-10-18T17:27:56.989Z,101107.44
2022-10-18T17:31:00.559Z,101114.87
2022-10-18T17:34:03.780Z,101108.91
2022-10-18T17:37:08.527Z,101102.53
2022-10-18T17:40:13.240Z,101104.28
2022-10-18T17:43:16.779Z,101102.47
2022-10-18T17:46:20.365Z,101110.88
2022-10-18T17:49:23.724Z,101114.53
2022-10-18T17:52:27.158Z,101105.63
2022-10-18T17:55:30.689Z,101109.09
2022-10-18T17:58:33.807Z,101100.12
2022-10-18T18:01:38.041Z,101107.06
2022-10-18T18:04:41.699Z,101096.28
2022-10-18T18:07:48.095Z,101095.34
2022-10-18T18:10:55.963Z,101109.06
2022-10-18T18:14:00.000Z,101099.94
2022-10-18T18:17:03.401Z,101096.62
2022-10-18T18:20:07.338Z,101086.81
2022-10-18T18:23:10.849Z,101094.63
2022-10-18T18:26:14.198Z,101084.97
2022-10-18T18:29:17.677Z,101073.00
2022-10-18T18:32:22.367Z,101078.69
2022-10-18T18:35:25.856Z,101073.00
2022-10-18T18:38:28.970Z,101070.47
2022-10-18T18:41:32.877Z,101070.75
2022-10-18T18:44:36.044Z,101082.03
2022-10-18T18:47:42.555Z,101082.97
2022-10-18T18:50:51.179Z,101075.78
2022-10-18T18:53:55.747Z,101079.16
2022-10-18T18:56:59.561Z,101080.78
2022-10-18T19:00:03.429Z,101069.44
2022-10-18T19:03:06.117Z,101074.94
2022-10-18T19:06:19.809Z,101070.00
2022-10-18T19:09:23.932Z,101072.84
2022-10-18T19:12:27.633Z,101066.31
2022-10-18T19:15:30.752Z,101070.69
2022-10-18T19:18:34.134Z,101054.00
2022-10-18T19:21:53.063Z,101058.13
2022-10-18T19:24:58.098Z,101057.91
2022-10-18T19:28:01.280Z,101056.06
2022-10-18T19:31:04.645Z,101059.00
2022-10-18T19:34:11.050Z,101051.09
2022-10-18T19:37:15.873Z,101049.25
2022-10-18T19:40:20.411Z,101046.41
2022-10-18T19:43:23.995Z,101051.00
2022-10-18T19:46:28.432Z,101059.91
2022-10-18T19:49:32.158Z,101056.72
2022-10-18T19:52:35.613Z,101062.78
2022-10-18T19:55:39.198Z,101064.03
2022-10-18T19:58:41.828Z,101072.41
2022-10-18T20:01:45.644Z,101062.03
2022-10-18T20:04:48.934Z,101057.37
2022-10-18T20:07:51.946Z,101057.56
2022-10-18T20:10:55.549Z,101055.34
2022-10-18T20:14:00.453Z,101060.06
2022-10-18T20:17:06.315Z,101054.88
2022-10-18T20:20:09.561Z,101052.19
2022-10-18T20:23:12.604Z,101048.56
2022-10-18T20:26:20.843Z,101052.62
2022-10-18T20:29:25.561Z,101055.38
2022-10-18T20:32:28.168Z,101051.63
2022-10-18T20:35:32.309Z,101053.72
2022-10-18T20:38:36.516Z,101047.25
2022-10-18T20:41:43.129Z,101055.06
2022-10-18T20:44:47.236Z,101047.41
2022-10-18T20:47:50.178Z,101060.50
2022-10-18T20:50:52.909Z,101058.53
2022-10-18T20:53:56.133Z,101047.22
2022-10-18T20:56:58.718Z,101052.12
2022-10-18T21:00:01.682Z,101056.91
2022-10-18T21:03:04.457Z,101032.56
2022-10-18T21:06:14.679Z,101035.16
2022-10-18T21:09:19.598Z,101027.78
2022-10-18T21:12:22.940Z,101029.69
2022-10-18T21:15:26.631Z,101026.66
2022-10-18T21:18:32.709Z,101022.34
2022-10-18T21:21:36.327Z,101018.06
2022-10-18T21:24:39.299Z,101023.78
2022-10-18T21:27:42.041Z,101017.03
2022-10-18T21:30:44.931Z,101025.56
2022-10-18T21:33:48.593Z,101017.78
2022-10-18T21:36:51.534Z,101013.09
2022-10-18T21:39:54.076Z,101010.22
2022-10-18T21:42:57.528Z,101018.03
2022-10-18T21:46:00.516Z,101020.56
2022-10-18T21:49:05.635Z,101015.72
2022-10-18T21:52:08.214Z,101008.09
2022-10-18T21:55:11.217Z,101004.06
2022-10-18T21:58:14.059Z,101006.56
2022-10-18T22:01:29.090Z,101005.69
2022-10-18T22:04:35.894Z,100997.84
2022-10-18T22:07:41.079Z,100991.34
2022-10-18T22:10:44.001Z,100989.78
2022-10-18T22:13:47.115Z,100995.47
2022-10-18T22:16:50.981Z,101002.63
2022-10-18T22:19:53.973Z,101006.31
2022-10-18T22:22:59.720Z,100997.66
2022-10-18T22:26:12.128Z,101000.13
2022-10-18T22:29:19.777Z,100992.50
2022-10-18T22:32:22.352Z,100989.63
2022-10-18T22:35:25.335Z,100999.53
2022-10-18T22:38:32.343Z,100998.47
2022-10-18T22:41:36.159Z,101004.31
2022-10-18T22:44:38.982Z,101000.69
2022-10-18T22:47:41.859Z,100999.22
2022-10-18T22:50:44.619Z,100994.38
2022-10-18T22:53:47.628Z,100991.25
2022-10-18T22:56:50.499Z,100988.53
2022-10-18T22:59:53.511Z,100983.63
2022-10-18T23:02:56.201Z,100985.13
2022-10-18T23:05:59.364Z,100984.34
2022-10-18T23:09:05.408Z,100981.84
2022-10-18T23:12:08.632Z,100984.69
2022-10-18T23:15:11.883Z,100978.59
2022-10-18T23:18:14.836Z,100980.25
2022-10-18T23:21:19.546Z,100979.53
2022-10-18T23:24:22.532Z,100971.81
2022-10-18T23:27:25.130Z,100976.56
2022-10-18T23:30:28.183Z,100969.75
2022-10-18T23:33:30.788Z,100980.88
2022-10-18T23:36:35.508Z,100980.94
2022-10-18T23:39:39.005Z,100983.38
2022-10-18T23:42:41.880Z,100974.16
2022-10-18T23:48:52.539Z,100965.66
2022-10-18T23:51:55.393Z,100983.66
2022-10-18T23:54:58.307Z,100971.12
2022-10-18T23:58:01.410Z,100962.63
